sensor_id;sensor_type;location;lat;lon;timestamp;temperature;humidity
29939;DHT22;16799;50.844;5.304;2022-10-22T00:01:49;14.90;99.90
29939;DHT22;16799;50.844;5.304;2022-10-22T00:04:15;14.90;99.90
29939;DHT22;16799;50.844;5.304;2022-10-22T00:06:40;15.10;99.90
29939;DHT22;16799;50.844;5.304;2022-10-22T00:09:10;15.20;99.90
29939;DHT22;16799;50.844;5.304;2022-10-22T00:11:35;15.20;99.90
29939;DHT22;16799;50.844;5.304;2022-10-22T00:14:01;15.20;99.90
29939;DHT22;16799;50.844;5.304;2022-10-22T00:16:26;15.20;99.90
29939;DHT22;16799;50.844;5.304;2022-10-22T00:18:52;15.20;99.90
29939;DHT22;16799;50.844;5.304;2022-10-22T00:21:18;15.40;99.90
29939;DHT22;16799;50.844;5.304;2022-10-22T00:23:43;15.40;99.90
29939;DHT22;16799;50.844;5.304;2022-10-22T00:26:10;15.30;99.90
29939;DHT22;16799;50.844;5.304;2022-10-22T00:28:36;15.30;99.90
29939;DHT22;16799;50.844;5.304;2022-10-22T00:31:02;15.30;99.90
29939;DHT22;16799;50.844;5.304;2022-10-22T00:33:28;15.40;99.90
29939;DHT22;16799;50.844;5.304;2022-10-22T00:35:55;15.40;99.90
29939;DHT22;16799;50.844;5.304;2022-10-22T00:38:21;15.20;99.90
29939;DHT22;16799;50.844;5.304;2022-10-22T00:40:47;15.30;99.90
29939;DHT22;16799;50.844;5.304;2022-10-22T00:43:14;15.30;99.90
29939;DHT22;16799;50.844;5.304;2022-10-22T00:45:41;15.30;99.90
29939;DHT22;16799;50.844;5.304;2022-10-22T00:53:09;15.40;99.90
29939;DHT22;16799;50.844;5.304;2022-10-22T00:55:37;15.50;99.90
29939;DHT22;16799;50.844;5.304;2022-10-22T00:58:03;15.40;99.90
29939;DHT22;16799;50.844;5.304;2022-10-22T01:00:29;15.40;99.90
29939;DHT22;16799;50.844;5.304;2022-10-22T01:02:55;15.40;99.90
29939;DHT22;16799;50.844;5.304;2022-10-22T01:05:22;15.30;99.90
29939;DHT22;16799;50.844;5.304;2022-10-22T01:07:51;15.30;99.90
29939;DHT22;16799;50.844;5.304;2022-10-22T01:10:24;15.20;99.90
29939;DHT22;16799;50.844;5.304;2022-10-22T01:13:13;15.30;99.90
29939;DHT22;16799;50.844;5.304;2022-10-22T01:18:37;15.30;99.90
29939;DHT22;16799;50.844;5.304;2022-10-22T01:21:25;15.10;99.90
29939;DHT22;16799;50.844;5.304;2022-10-22T01:26:49;15.10;99.90
29939;DHT22;16799;50.844;5.304;2022-10-22T01:29:45;15.20;99.90
29939;DHT22;16799;50.844;5.304;2022-10-22T01:32:12;15.00;99.90
29939;DHT22;16799;50.844;5.304;2022-10-22T01:34:41;15.00;99.90
29939;DHT22;16799;50.844;5.304;2022-10-22T01:37:10;15.00;99.90
29939;DHT22;16799;50.844;5.304;2022-10-22T01:39:37;15.20;99.90
29939;DHT22;16799;50.844;5.304;2022-10-22T01:42:05;15.00;99.90
29939;DHT22;16799;50.844;5.304;2022-10-22T01:44:35;15.00;99.90
29939;DHT22;16799;50.844;5.304;2022-10-22T01:55:30;14.90;99.90
29939;DHT22;16799;50.844;5.304;2022-10-22T01:58:21;14.80;99.90
29939;DHT22;16799;50.844;5.304;2022-10-22T02:00:57;14.80;99.90
29939;DHT22;16799;50.844;5.304;2022-10-22T02:03:29;14.60;99.90
29939;DHT22;16799;50.844;5.304;2022-10-22T02:06:02;14.50;99.90
29939;DHT22;16799;50.844;5.304;2022-10-22T02:08:31;14.60;99.90
29939;DHT22;16799;50.844;5.304;2022-10-22T02:10:59;14.60;99.90
29939;DHT22;16799;50.844;5.304;2022-10-22T02:13:35;14.70;99.90
29939;DHT22;16799;50.844;5.304;2022-10-22T02:16:06;14.60;99.90
29939;DHT22;16799;50.844;5.304;2022-10-22T02:18:34;14.60;99.90
29939;DHT22;16799;50.844;5.304;2022-10-22T02:21:01;14.70;99.90
29939;DHT22;16799;50.844;5.304;2022-10-22T02:23:27;14.60;99.90
29939;DHT22;16799;50.844;5.304;2022-10-22T02:26:00;14.60;99.90
29939;DHT22;16799;50.844;5.304;2022-10-22T02:31:09;14.60;99.90
29939;DHT22;16799;50.844;5.304;2022-10-22T02:33:47;14.40;99.90
29939;DHT22;16799;50.844;5.304;2022-10-22T02:36:16;14.60;99.90
29939;DHT22;16799;50.844;5.304;2022-10-22T02:38:42;14.50;99.90
29939;DHT22;16799;50.844;5.304;2022-10-22T02:41:09;14.30;99.90
29939;DHT22;16799;50.844;5.304;2022-10-22T02:43:42;14.30;99.90
29939;DHT22;16799;50.844;5.304;2022-10-22T02:46:09;14.40;99.90
29939;DHT22;16799;50.844;5.304;2022-10-22T02:48:35;14.40;99.90
29939;DHT22;16799;50.844;5.304;2022-10-22T02:51:01;14.40;99.90
29939;DHT22;16799;50.844;5.304;2022-10-22T02:53:26;14.50;99.90
29939;DHT22;16799;50.844;5.304;2022-10-22T02:55:52;14.30;99.90
29939;DHT22;16799;50.844;5.304;2022-10-22T02:58:18;14.00;99.90
29939;DHT22;16799;50.844;5.304;2022-10-22T03:00:43;14.00;99.90
29939;DHT22;16799;50.844;5.304;2022-10-22T03:03:09;14.10;99.90
29939;DHT22;16799;50.844;5.304;2022-10-22T03:05:34;14.10;99.90
29939;DHT22;16799;50.844;5.304;2022-10-22T03:08:00;14.30;99.90
29939;DHT22;16799;50.844;5.304;2022-10-22T03:10:26;14.40;99.90
29939;DHT22;16799;50.844;5.304;2022-10-22T03:12:51;14.40;99.90
29939;DHT22;16799;50.844;5.304;2022-10-22T03:15:17;14.40;99.90
29939;DHT22;16799;50.844;5.304;2022-10-22T03:17:42;14.30;99.90
29939;DHT22;16799;50.844;5.304;2022-10-22T03:20:08;14.30;99.90
29939;DHT22;16799;50.844;5.304;2022-10-22T03:22:35;14.30;99.90
29939;DHT22;16799;50.844;5.304;2022-10-22T03:25:06;14.40;99.90
29939;DHT22;16799;50.844;5.304;2022-10-22T03:27:33;14.40;99.90
29939;DHT22;16799;50.844;5.304;2022-10-22T03:30:01;14.40;99.90
29939;DHT22;16799;50.844;5.304;2022-10-22T03:32:26;14.50;99.90
29939;DHT22;16799;50.844;5.304;2022-10-22T03:34:52;14.50;99.90
29939;DHT22;16799;50.844;5.304;2022-10-22T03:37:18;14.40;99.90
29939;DHT22;16799;50.844;5.304;2022-10-22T03:39:44;14.50;99.90
29939;DHT22;16799;50.844;5.304;2022-10-22T03:42:10;14.50;99.90
29939;DHT22;16799;50.844;5.304;2022-10-22T03:44:38;14.50;99.90
29939;DHT22;16799;50.844;5.304;2022-10-22T03:47:04;14.40;99.90
29939;DHT22;16799;50.844;5.304;2022-10-22T03:49:30;14.40;99.90
29939;DHT22;16799;50.844;5.304;2022-10-22T03:51:56;14.30;99.90
29939;DHT22;16799;50.844;5.304;2022-10-22T03:54:22;14.40;99.90
29939;DHT22;16799;50.844;5.304;2022-10-22T03:56:47;14.40;99.90
29939;DHT22;16799;50.844;5.304;2022-10-22T03:59:13;14.30;99.90
29939;DHT22;16799;50.844;5.304;2022-10-22T04:01:39;14.40;99.90
29939;DHT22;16799;50.844;5.304;2022-10-22T04:04:05;14.30;99.90
29939;DHT22;16799;50.844;5.304;2022-10-22T04:06:30;14.30;99.90
29939;DHT22;16799;50.844;5.304;2022-10-22T04:08:56;14.30;99.90
29939;DHT22;16799;50.844;5.304;2022-10-22T04:11:22;14.40;99.90
29939;DHT22;16799;50.844;5.304;2022-10-22T04:13:47;14.30;99.90
29939;DHT22;16799;50.844;5.304;2022-10-22T04:16:16;14.40;99.90
29939;DHT22;16799;50.844;5.304;2022-10-22T04:18:43;14.50;99.90
29939;DHT22;16799;50.844;5.304;2022-10-22T04:21:10;14.50;99.90
29939;DHT22;16799;50.844;5.304;2022-10-22T04:23:37;14.60;99.90
29939;DHT22;16799;50.844;5.304;2022-10-22T04:26:05;14.60;99.90
29939;DHT22;16799;50.844;5.304;2022-10-22T04:28:31;14.60;99.90
29939;DHT22;16799;50.844;5.304;2022-10-22T04:30:56;14.50;99.90
29939;DHT22;16799;50.844;5.304;2022-10-22T04:33:22;14.50;99.90
29939;DHT22;16799;50.844;5.304;2022-10-22T04:35:48;14.50;99.90
29939;DHT22;16799;50.844;5.304;2022-10-22T04:38:14;14.70;99.90
29939;DHT22;16799;50.844;5.304;2022-10-22T04:40:40;14.70;99.90
29939;DHT22;16799;50.844;5.304;2022-10-22T04:43:06;14.70;99.90
29939;DHT22;16799;50.844;5.304;2022-10-22T04:45:32;14.60;99.90
29939;DHT22;16799;50.844;5.304;2022-10-22T04:47:58;14.60;99.90
29939;DHT22;16799;50.844;5.304;2022-10-22T04:50:24;14.60;99.90
29939;DHT22;16799;50.844;5.304;2022-10-22T04:52:49;14.60;99.90
29939;DHT22;16799;50.844;5.304;2022-10-22T04:55:15;14.50;99.90
29939;DHT22;16799;50.844;5.304;2022-10-22T04:57:41;14.60;99.90
29939;DHT22;16799;50.844;5.304;2022-10-22T05:00:07;14.70;99.90
29939;DHT22;16799;50.844;5.304;2022-10-22T05:02:32;14.70;99.90
29939;DHT22;16799;50.844;5.304;2022-10-22T05:04:58;14.80;99.90
29939;DHT22;16799;50.844;5.304;2022-10-22T05:07:24;14.70;99.90
29939;DHT22;16799;50.844;5.304;2022-10-22T05:09:50;14.60;99.90
29939;DHT22;16799;50.844;5.304;2022-10-22T05:12:16;14.70;99.90
29939;DHT22;16799;50.844;5.304;2022-10-22T05:14:41;14.80;99.90
29939;DHT22;16799;50.844;5.304;2022-10-22T05:17:07;14.70;99.90
29939;DHT22;16799;50.844;5.304;2022-10-22T05:19:32;14.70;99.90
29939;DHT22;16799;50.844;5.304;2022-10-22T05:22:00;14.70;99.90
29939;DHT22;16799;50.844;5.304;2022-10-22T05:24:27;14.70;99.90
29939;DHT22;16799;50.844;5.304;2022-10-22T05:26:56;14.70;99.90
29939;DHT22;16799;50.844;5.304;2022-10-22T05:29:22;14.80;99.90
29939;DHT22;16799;50.844;5.304;2022-10-22T05:31:48;14.70;99.90
29939;DHT22;16799;50.844;5.304;2022-10-22T05:34:14;14.70;99.90
29939;DHT22;16799;50.844;5.304;2022-10-22T05:36:40;14.70;99.90
29939;DHT22;16799;50.844;5.304;2022-10-22T05:39:06;14.60;99.90
29939;DHT22;16799;50.844;5.304;2022-10-22T05:41:33;14.60;99.90
29939;DHT22;16799;50.844;5.304;2022-10-22T05:44:00;14.40;99.90
29939;DHT22;16799;50.844;5.304;2022-10-22T05:46:28;14.50;99.90
29939;DHT22;16799;50.844;5.304;2022-10-22T05:48:58;14.50;99.90
29939;DHT22;16799;50.844;5.304;2022-10-22T05:51:26;14.50;99.90
29939;DHT22;16799;50.844;5.304;2022-10-22T05:53:58;14.40;99.90
29939;DHT22;16799;50.844;5.304;2022-10-22T05:56:25;14.50;99.90
29939;DHT22;16799;50.844;5.304;2022-10-22T05:58:51;14.50;99.90
29939;DHT22;16799;50.844;5.304;2022-10-22T06:01:22;14.40;99.90
29939;DHT22;16799;50.844;5.304;2022-10-22T06:03:52;14.30;99.90
29939;DHT22;16799;50.844;5.304;2022-10-22T06:06:35;14.40;99.90
29939;DHT22;16799;50.844;5.304;2022-10-22T06:09:28;14.40;99.90
29939;DHT22;16799;50.844;5.304;2022-10-22T06:11:55;14.40;99.90
29939;DHT22;16799;50.844;5.304;2022-10-22T06:14:21;14.40;99.90
29939;DHT22;16799;50.844;5.304;2022-10-22T06:16:48;14.40;99.90
29939;DHT22;16799;50.844;5.304;2022-10-22T06:19:16;14.40;99.90
29939;DHT22;16799;50.844;5.304;2022-10-22T06:21:42;14.40;99.90
29939;DHT22;16799;50.844;5.304;2022-10-22T06:24:09;14.40;99.90
29939;DHT22;16799;50.844;5.304;2022-10-22T06:26:35;14.40;99.90
29939;DHT22;16799;50.844;5.304;2022-10-22T06:29:00;14.30;99.90
29939;DHT22;16799;50.844;5.304;2022-10-22T06:31:27;14.30;99.90
29939;DHT22;16799;50.844;5.304;2022-10-22T06:33:55;14.20;99.90
29939;DHT22;16799;50.844;5.304;2022-10-22T06:36:22;14.20;99.90
29939;DHT22;16799;50.844;5.304;2022-10-22T06:38:51;14.40;99.90
29939;DHT22;16799;50.844;5.304;2022-10-22T06:41:17;14.40;99.90
29939;DHT22;16799;50.844;5.304;2022-10-22T06:43:44;14.30;99.90
29939;DHT22;16799;50.844;5.304;2022-10-22T06:46:12;14.20;99.90
29939;DHT22;16799;50.844;5.304;2022-10-22T06:48:38;14.20;99.90
29939;DHT22;16799;50.844;5.304;2022-10-22T06:51:07;14.20;99.90
29939;DHT22;16799;50.844;5.304;2022-10-22T06:53:33;14.20;99.90
29939;DHT22;16799;50.844;5.304;2022-10-22T06:56:04;14.30;99.90
29939;DHT22;16799;50.844;5.304;2022-10-22T06:58:30;14.40;99.90
29939;DHT22;16799;50.844;5.304;2022-10-22T07:01:07;14.60;99.90
29939;DHT22;16799;50.844;5.304;2022-10-22T07:03:33;14.70;99.90
29939;DHT22;16799;50.844;5.304;2022-10-22T07:06:04;14.80;99.90
29939;DHT22;16799;50.844;5.304;2022-10-22T07:08:30;14.90;99.90
29939;DHT22;16799;50.844;5.304;2022-10-22T07:11:03;14.90;99.90
29939;DHT22;16799;50.844;5.304;2022-10-22T07:13:29;15.10;99.90
29939;DHT22;16799;50.844;5.304;2022-10-22T07:15:54;15.20;99.90
29939;DHT22;16799;50.844;5.304;2022-10-22T07:18:21;15.00;99.90
29939;DHT22;16799;50.844;5.304;2022-10-22T07:20:47;15.00;99.90
29939;DHT22;16799;50.844;5.304;2022-10-22T07:23:13;15.00;99.90
29939;DHT22;16799;50.844;5.304;2022-10-22T07:25:40;15.00;99.90
29939;DHT22;16799;50.844;5.304;2022-10-22T07:28:06;15.30;99.90
29939;DHT22;16799;50.844;5.304;2022-10-22T07:30:36;15.20;99.90
29939;DHT22;16799;50.844;5.304;2022-10-22T07:33:02;15.20;99.90
29939;DHT22;16799;50.844;5.304;2022-10-22T07:35:28;15.10;99.90
29939;DHT22;16799;50.844;5.304;2022-10-22T07:37:53;15.00;99.90
29939;DHT22;16799;50.844;5.304;2022-10-22T07:40:19;15.00;99.90
29939;DHT22;16799;50.844;5.304;2022-10-22T07:42:45;15.20;99.90
29939;DHT22;16799;50.844;5.304;2022-10-22T07:45:10;15.20;99.90
29939;DHT22;16799;50.844;5.304;2022-10-22T07:47:36;15.30;99.90
29939;DHT22;16799;50.844;5.304;2022-10-22T07:50:02;15.30;99.90
29939;DHT22;16799;50.844;5.304;2022-10-22T07:52:28;15.40;99.90
29939;DHT22;16799;50.844;5.304;2022-10-22T07:54:54;15.40;99.90
29939;DHT22;16799;50.844;5.304;2022-10-22T07:57:20;15.50;99.90
29939;DHT22;16799;50.844;5.304;2022-10-22T07:59:45;15.60;99.90
29939;DHT22;16799;50.844;5.304;2022-10-22T08:02:11;15.70;99.90
29939;DHT22;16799;50.844;5.304;2022-10-22T08:04:37;15.70;99.90
29939;DHT22;16799;50.844;5.304;2022-10-22T08:07:03;15.60;99.90
29939;DHT22;16799;50.844;5.304;2022-10-22T08:09:29;15.70;99.90
29939;DHT22;16799;50.844;5.304;2022-10-22T08:11:55;15.90;99.90
29939;DHT22;16799;50.844;5.304;2022-10-22T08:14:21;16.00;99.90
29939;DHT22;16799;50.844;5.304;2022-10-22T08:16:47;15.90;99.90
29939;DHT22;16799;50.844;5.304;2022-10-22T08:19:13;15.90;99.90
29939;DHT22;16799;50.844;5.304;2022-10-22T08:21:44;15.80;99.90
29939;DHT22;16799;50.844;5.304;2022-10-22T08:24:10;15.90;99.90
29939;DHT22;16799;50.844;5.304;2022-10-22T08:26:36;15.90;99.90
29939;DHT22;16799;50.844;5.304;2022-10-22T08:29:01;16.00;99.90
29939;DHT22;16799;50.844;5.304;2022-10-22T08:31:27;16.00;99.90
29939;DHT22;16799;50.844;5.304;2022-10-22T08:33:52;16.20;99.90
29939;DHT22;16799;50.844;5.304;2022-10-22T08:36:18;16.10;99.90
29939;DHT22;16799;50.844;5.304;2022-10-22T08:38:44;16.10;99.90
29939;DHT22;16799;50.844;5.304;2022-10-22T08:41:16;16.10;99.90
29939;DHT22;16799;50.844;5.304;2022-10-22T08:44:06;16.10;99.90
29939;DHT22;16799;50.844;5.304;2022-10-22T08:47:00;16.20;99.90
29939;DHT22;16799;50.844;5.304;2022-10-22T08:49:29;16.10;99.90
29939;DHT22;16799;50.844;5.304;2022-10-22T08:51:58;16.10;99.90
29939;DHT22;16799;50.844;5.304;2022-10-22T08:54:41;16.20;99.90
29939;DHT22;16799;50.844;5.304;2022-10-22T09:08:00;16.50;99.90
29939;DHT22;16799;50.844;5.304;2022-10-22T09:10:32;16.50;99.90
29939;DHT22;16799;50.844;5.304;2022-10-22T09:12:59;16.40;99.90
29939;DHT22;16799;50.844;5.304;2022-10-22T09:15:24;16.50;99.90
29939;DHT22;16799;50.844;5.304;2022-10-22T09:18:09;16.50;99.90
29939;DHT22;16799;50.844;5.304;2022-10-22T09:20:47;16.50;99.90
29939;DHT22;16799;50.844;5.304;2022-10-22T09:23:48;16.60;99.90
29939;DHT22;16799;50.844;5.304;2022-10-22T09:26:16;16.70;99.90
29939;DHT22;16799;50.844;5.304;2022-10-22T09:28:42;17.00;99.90
29939;DHT22;16799;50.844;5.304;2022-10-22T09:31:12;17.00;99.90
29939;DHT22;16799;50.844;5.304;2022-10-22T09:33:39;17.00;99.90
29939;DHT22;16799;50.844;5.304;2022-10-22T09:36:05;17.10;99.90
29939;DHT22;16799;50.844;5.304;2022-10-22T09:38:40;17.30;99.90
29939;DHT22;16799;50.844;5.304;2022-10-22T09:41:08;17.50;99.90
29939;DHT22;16799;50.844;5.304;2022-10-22T09:43:34;17.70;99.90
29939;DHT22;16799;50.844;5.304;2022-10-22T09:46:14;17.80;99.90
29939;DHT22;16799;50.844;5.304;2022-10-22T09:48:43;18.00;99.90
29939;DHT22;16799;50.844;5.304;2022-10-22T09:51:17;18.00;99.90
29939;DHT22;16799;50.844;5.304;2022-10-22T09:53:46;18.00;99.90
29939;DHT22;16799;50.844;5.304;2022-10-22T09:58:49;17.90;99.90
29939;DHT22;16799;50.844;5.304;2022-10-22T10:01:19;17.80;99.90
29939;DHT22;16799;50.844;5.304;2022-10-22T10:03:47;17.70;99.90
29939;DHT22;16799;50.844;5.304;2022-10-22T10:06:21;17.90;99.90
29939;DHT22;16799;50.844;5.304;2022-10-22T10:08:47;18.20;99.90
29939;DHT22;16799;50.844;5.304;2022-10-22T10:11:30;18.00;99.90
29939;DHT22;16799;50.844;5.304;2022-10-22T10:19:40;17.60;99.90
29939;DHT22;16799;50.844;5.304;2022-10-22T10:30:53;17.70;99.90
29939;DHT22;16799;50.844;5.304;2022-10-22T10:33:41;17.80;99.90
29939;DHT22;16799;50.844;5.304;2022-10-22T10:36:18;17.90;99.90
29939;DHT22;16799;50.844;5.304;2022-10-22T10:38:55;18.10;99.90
29939;DHT22;16799;50.844;5.304;2022-10-22T10:45:17;18.20;99.90
29939;DHT22;16799;50.844;5.304;2022-10-22T10:50:43;17.70;99.90
29939;DHT22;16799;50.844;5.304;2022-10-22T10:58:35;18.10;99.90
29939;DHT22;16799;50.844;5.304;2022-10-22T11:01:11;18.30;99.90
29939;DHT22;16799;50.844;5.304;2022-10-22T11:04:00;18.80;99.90
29939;DHT22;16799;50.844;5.304;2022-10-22T11:06:30;19.10;99.90
29939;DHT22;16799;50.844;5.304;2022-10-22T11:09:09;19.40;99.90
29939;DHT22;16799;50.844;5.304;2022-10-22T11:12:00;19.90;99.90
29939;DHT22;16799;50.844;5.304;2022-10-22T11:14:51;20.90;99.90
29939;DHT22;16799;50.844;5.304;2022-10-22T11:17:22;22.40;99.90
29939;DHT22;16799;50.844;5.304;2022-10-22T11:22:37;23.20;96.10
29939;DHT22;16799;50.844;5.304;2022-10-22T11:25:24;23.30;96.80
29939;DHT22;16799;50.844;5.304;2022-10-22T11:27:56;22.40;96.60
29939;DHT22;16799;50.844;5.304;2022-10-22T11:30:26;20.60;99.90
29939;DHT22;16799;50.844;5.304;2022-10-22T11:32:56;19.90;99.90
29939;DHT22;16799;50.844;5.304;2022-10-22T11:35:31;20.00;99.90
29939;DHT22;16799;50.844;5.304;2022-10-22T11:37:59;21.20;99.90
29939;DHT22;16799;50.844;5.304;2022-10-22T11:43:24;20.60;99.90
29939;DHT22;16799;50.844;5.304;2022-10-22T11:45:42;20.70;99.90
29939;DHT22;16799;50.844;5.304;2022-10-22T11:48:18;20.20;99.90
29939;DHT22;16799;50.844;5.304;2022-10-22T11:51:27;20.00;99.90
29939;DHT22;16799;50.844;5.304;2022-10-22T11:53:36;19.70;99.90
29939;DHT22;16799;50.844;5.304;2022-10-22T11:58:40;21.30;99.70
29939;DHT22;16799;50.844;5.304;2022-10-22T12:03:52;21.70;98.80
29939;DHT22;16799;50.844;5.304;2022-10-22T12:06:51;21.00;99.90
29939;DHT22;16799;50.844;5.304;2022-10-22T12:09:14;21.00;99.90
29939;DHT22;16799;50.844;5.304;2022-10-22T12:11:40;20.50;99.90
29939;DHT22;16799;50.844;5.304;2022-10-22T12:16:46;21.90;98.70
29939;DHT22;16799;50.844;5.304;2022-10-22T12:19:23;22.60;97.40
29939;DHT22;16799;50.844;5.304;2022-10-22T12:24:22;22.70;97.00
29939;DHT22;16799;50.844;5.304;2022-10-22T12:26:48;22.50;96.80
29939;DHT22;16799;50.844;5.304;2022-10-22T12:29:18;21.70;97.20
29939;DHT22;16799;50.844;5.304;2022-10-22T12:31:45;21.00;99.30
29939;DHT22;16799;50.844;5.304;2022-10-22T12:34:17;20.50;99.90
29939;DHT22;16799;50.844;5.304;2022-10-22T12:36:45;19.90;99.90
29939;DHT22;16799;50.844;5.304;2022-10-22T12:39:16;19.80;99.90
29939;DHT22;16799;50.844;5.304;2022-10-22T12:41:42;20.00;99.90
29939;DHT22;16799;50.844;5.304;2022-10-22T12:44:14;21.00;99.90
29939;DHT22;16799;50.844;5.304;2022-10-22T12:46:41;22.70;96.40
29939;DHT22;16799;50.844;5.304;2022-10-22T12:49:16;22.90;94.10
29939;DHT22;16799;50.844;5.304;2022-10-22T12:51:43;23.10;93.40
29939;DHT22;16799;50.844;5.304;2022-10-22T12:54:25;23.10;93.60
29939;DHT22;16799;50.844;5.304;2022-10-22T12:56:53;23.20;93.10
29939;DHT22;16799;50.844;5.304;2022-10-22T12:59:33;23.00;92.60
29939;DHT22;16799;50.844;5.304;2022-10-22T13:01:59;22.80;93.10
29939;DHT22;16799;50.844;5.304;2022-10-22T13:10:00;23.40;93.00
29939;DHT22;16799;50.844;5.304;2022-10-22T13:12:27;24.50;90.80
29939;DHT22;16799;50.844;5.304;2022-10-22T13:14:53;24.40;90.60
29939;DHT22;16799;50.844;5.304;2022-10-22T13:17:36;24.90;89.90
29939;DHT22;16799;50.844;5.304;2022-10-22T13:20:19;24.50;89.80
29939;DHT22;16799;50.844;5.304;2022-10-22T13:25:35;24.20;90.30
29939;DHT22;16799;50.844;5.304;2022-10-22T13:28:19;23.30;92.00
29939;DHT22;16799;50.844;5.304;2022-10-22T13:31:36;22.60;93.80
29939;DHT22;16799;50.844;5.304;2022-10-22T13:33:44;21.60;95.30
29939;DHT22;16799;50.844;5.304;2022-10-22T13:36:15;20.90;97.10
29939;DHT22;16799;50.844;5.304;2022-10-22T13:38:42;20.60;98.50
29939;DHT22;16799;50.844;5.304;2022-10-22T13:41:37;20.50;97.90
29939;DHT22;16799;50.844;5.304;2022-10-22T13:44:03;20.50;97.40
29939;DHT22;16799;50.844;5.304;2022-10-22T13:46:28;20.40;97.40
29939;DHT22;16799;50.844;5.304;2022-10-22T13:48:55;20.50;97.40
29939;DHT22;16799;50.844;5.304;2022-10-22T13:51:27;20.20;97.60
29939;DHT22;16799;50.844;5.304;2022-10-22T13:53:55;20.10;98.90
29939;DHT22;16799;50.844;5.304;2022-10-22T13:56:21;19.90;99.90
29939;DHT22;16799;50.844;5.304;2022-10-22T13:58:48;20.00;99.50
29939;DHT22;16799;50.844;5.304;2022-10-22T14:01:23;19.70;99.90
29939;DHT22;16799;50.844;5.304;2022-10-22T14:03:51;19.80;99.90
29939;DHT22;16799;50.844;5.304;2022-10-22T14:06:19;19.90;99.90
29939;DHT22;16799;50.844;5.304;2022-10-22T14:08:48;19.90;99.90
29939;DHT22;16799;50.844;5.304;2022-10-22T14:11:15;20.00;99.90
29939;DHT22;16799;50.844;5.304;2022-10-22T14:13:41;20.00;99.90
29939;DHT22;16799;50.844;5.304;2022-10-22T14:16:13;20.10;99.90
29939;DHT22;16799;50.844;5.304;2022-10-22T14:18:40;20.10;99.90
29939;DHT22;16799;50.844;5.304;2022-10-22T14:21:06;20.00;99.90
29939;DHT22;16799;50.844;5.304;2022-10-22T14:23:34;20.00;99.90
29939;DHT22;16799;50.844;5.304;2022-10-22T14:26:01;19.90;99.90
29939;DHT22;16799;50.844;5.304;2022-10-22T14:28:27;19.80;99.90
29939;DHT22;16799;50.844;5.304;2022-10-22T14:30:53;20.00;99.90
29939;DHT22;16799;50.844;5.304;2022-10-22T14:33:29;20.40;99.90
29939;DHT22;16799;50.844;5.304;2022-10-22T14:35:55;20.40;99.90
29939;DHT22;16799;50.844;5.304;2022-10-22T14:38:21;20.10;99.90
29939;DHT22;16799;50.844;5.304;2022-10-22T14:40:47;20.00;99.90
29939;DHT22;16799;50.844;5.304;2022-10-22T14:43:19;20.10;99.90
29939;DHT22;16799;50.844;5.304;2022-10-22T14:45:44;20.00;99.90
29939;DHT22;16799;50.844;5.304;2022-10-22T14:48:10;19.90;99.90
29939;DHT22;16799;50.844;5.304;2022-10-22T14:50:36;19.80;99.90
29939;DHT22;16799;50.844;5.304;2022-10-22T14:53:01;19.80;99.90
29939;DHT22;16799;50.844;5.304;2022-10-22T14:55:27;20.00;99.90
29939;DHT22;16799;50.844;5.304;2022-10-22T14:57:53;20.00;99.90
29939;DHT22;16799;50.844;5.304;2022-10-22T15:00:19;20.00;99.90
29939;DHT22;16799;50.844;5.304;2022-10-22T15:02:46;20.00;99.90
29939;DHT22;16799;50.844;5.304;2022-10-22T15:05:12;20.10;99.90
29939;DHT22;16799;50.844;5.304;2022-10-22T15:07:39;20.40;99.90
29939;DHT22;16799;50.844;5.304;2022-10-22T15:10:05;20.50;99.90
29939;DHT22;16799;50.844;5.304;2022-10-22T15:12:31;20.40;99.90
29939;DHT22;16799;50.844;5.304;2022-10-22T15:14:57;20.50;99.90
29939;DHT22;16799;50.844;5.304;2022-10-22T15:17:22;20.40;99.90
29939;DHT22;16799;50.844;5.304;2022-10-22T15:19:48;20.60;99.90
29939;DHT22;16799;50.844;5.304;2022-10-22T15:22:15;20.70;99.90
29939;DHT22;16799;50.844;5.304;2022-10-22T15:24:42;20.80;99.90
29939;DHT22;16799;50.844;5.304;2022-10-22T15:27:11;20.90;99.90
29939;DHT22;16799;50.844;5.304;2022-10-22T15:29:40;20.90;99.90
29939;DHT22;16799;50.844;5.304;2022-10-22T15:32:07;21.00;99.90
29939;DHT22;16799;50.844;5.304;2022-10-22T15:34:35;20.90;99.90
29939;DHT22;16799;50.844;5.304;2022-10-22T15:37:04;20.90;99.90
29939;DHT22;16799;50.844;5.304;2022-10-22T15:39:30;20.90;99.90
29939;DHT22;16799;50.844;5.304;2022-10-22T15:41:56;20.80;99.90
29939;DHT22;16799;50.844;5.304;2022-10-22T15:44:30;20.90;99.90
29939;DHT22;16799;50.844;5.304;2022-10-22T15:46:56;20.80;99.90
29939;DHT22;16799;50.844;5.304;2022-10-22T15:49:24;20.80;99.90
29939;DHT22;16799;50.844;5.304;2022-10-22T15:51:50;20.80;99.90
29939;DHT22;16799;50.844;5.304;2022-10-22T15:54:19;20.70;99.90
29939;DHT22;16799;50.844;5.304;2022-10-22T15:56:45;20.70;99.90
29939;DHT22;16799;50.844;5.304;2022-10-22T15:59:12;20.60;99.90
29939;DHT22;16799;50.844;5.304;2022-10-22T16:01:39;20.60;99.90
29939;DHT22;16799;50.844;5.304;2022-10-22T16:04:05;20.60;99.90
29939;DHT22;16799;50.844;5.304;2022-10-22T16:06:40;20.60;99.90
29939;DHT22;16799;50.844;5.304;2022-10-22T16:09:15;20.50;99.90
29939;DHT22;16799;50.844;5.304;2022-10-22T16:11:41;20.40;99.90
29939;DHT22;16799;50.844;5.304;2022-10-22T16:14:08;20.20;99.90
29939;DHT22;16799;50.844;5.304;2022-10-22T16:16:35;20.10;99.90
29939;DHT22;16799;50.844;5.304;2022-10-22T16:19:04;20.10;99.90
29939;DHT22;16799;50.844;5.304;2022-10-22T16:21:30;19.90;99.90
29939;DHT22;16799;50.844;5.304;2022-10-22T16:23:55;19.70;99.90
29939;DHT22;16799;50.844;5.304;2022-10-22T16:26:21;19.50;99.90
29939;DHT22;16799;50.844;5.304;2022-10-22T16:28:47;19.40;99.90
29939;DHT22;16799;50.844;5.304;2022-10-22T16:31:15;19.40;99.90
29939;DHT22;16799;50.844;5.304;2022-10-22T16:33:41;19.30;99.90
29939;DHT22;16799;50.844;5.304;2022-10-22T16:36:10;19.20;99.90
29939;DHT22;16799;50.844;5.304;2022-10-22T16:38:37;19.20;99.90
29939;DHT22;16799;50.844;5.304;2022-10-22T16:41:07;19.00;99.90
29939;DHT22;16799;50.844;5.304;2022-10-22T16:43:33;18.90;99.90
29939;DHT22;16799;50.844;5.304;2022-10-22T16:45:59;18.80;99.90
29939;DHT22;16799;50.844;5.304;2022-10-22T16:48:25;18.70;99.90
29939;DHT22;16799;50.844;5.304;2022-10-22T16:50:50;18.50;99.90
29939;DHT22;16799;50.844;5.304;2022-10-22T16:53:16;18.40;99.90
29939;DHT22;16799;50.844;5.304;2022-10-22T16:55:42;18.30;99.90
29939;DHT22;16799;50.844;5.304;2022-10-22T16:58:08;18.20;99.90
29939;DHT22;16799;50.844;5.304;2022-10-22T17:00:33;18.20;99.90
29939;DHT22;16799;50.844;5.304;2022-10-22T17:02:59;18.10;99.90
29939;DHT22;16799;50.844;5.304;2022-10-22T17:05:25;18.00;99.90
29939;DHT22;16799;50.844;5.304;2022-10-22T17:07:51;17.90;99.90